createdAt,value
2022-11-16T00:00:05.620Z,72.58
2022-11-16T00:02:37.547Z,72.32
2022-11-16T00:05:09.018Z,72.26
2022-11-16T00:07:40.403Z,72.93
2022-11-16T00:10:12.942Z,73.18
2022-11-16T00:12:43.539Z,73.16
2022-11-16T00:15:14.640Z,73.25
2022-11-16T00:17:45.904Z,73.15
2022-11-16T00:20:17.591Z,72.84
2022-11-16T00:22:49.300Z,73.40
2022-11-16T00:25:20.711Z,72.89
2022-11-16T00:27:54.625Z,73.26
2022-11-16T00:30:26.837Z,72.53
2022-11-16T00:33:01.741Z,72.25
2022-11-16T00:35:33.349Z,72.08
2022-11-16T00:38:04.515Z,72.37
2022-11-16T00:40:35.740Z,69.44
2022-11-16T00:43:06.987Z,68.63
2022-11-16T00:45:40.781Z,68.09
2022-11-16T00:48:12.610Z,67.67
2022-11-16T00:50:45.780Z,67.49
2022-11-16T00:53:19.800Z,67.01
2022-11-16T00:55:51.276Z,66.60
2022-11-16T00:58:24.602Z,66.76
2022-11-16T01:01:10.760Z,66.44
2022-11-16T01:03:41.983Z,66.34
2022-11-16T01:06:16.282Z,65.82
2022-11-16T01:08:47.631Z,65.93
2022-11-16T01:11:38.361Z,65.89
2022-11-16T01:14:10.755Z,65.52
2022-11-16T01:16:42.185Z,65.72
2022-11-16T01:19:13.467Z,65.13
2022-11-16T01:21:44.875Z,65.34
2022-11-16T01:24:16.351Z,65.09
2022-11-16T01:26:47.921Z,65.17
2022-11-16T01:29:19.283Z,65.01
2022-11-16T01:31:58.715Z,64.91
2022-11-16T01:34:30.949Z,64.94
2022-11-16T01:37:09.366Z,65.07
2022-11-16T01:39:44.565Z,64.98
2022-11-16T01:42:34.998Z,64.56
2022-11-16T01:45:25.555Z,64.50
2022-11-16T01:48:00.581Z,64.88
2022-11-16T01:50:36.321Z,64.65
2022-11-16T01:53:10.627Z,64.14
2022-11-16T01:55:51.709Z,64.32
2022-11-16T01:58:49.023Z,64.16
2022-11-16T02:01:27.410Z,64.61
2022-11-16T02:04:01.934Z,63.96
2022-11-16T02:06:47.169Z,63.83
2022-11-16T02:09:56.887Z,63.97
2022-11-16T02:13:05.841Z,64.37
2022-11-16T02:16:00.210Z,64.04
2022-11-16T02:18:56.147Z,64.46
2022-11-16T02:21:42.669Z,64.45
2022-11-16T02:24:38.340Z,64.46
2022-11-16T02:27:39.031Z,63.79
2022-11-16T02:30:10.458Z,63.52
2022-11-16T02:32:48.150Z,63.94
2022-11-16T02:35:25.977Z,63.82
2022-11-16T02:38:06.604Z,63.80
2022-11-16T02:40:41.142Z,63.68
2022-11-16T02:43:18.394Z,63.17
2022-11-16T02:45:53.188Z,63.25
2022-11-16T02:48:29.036Z,63.10
2022-11-16T02:51:00.846Z,63.20
2022-11-16T02:53:53.531Z,63.30
2022-11-16T02:56:25.005Z,63.59
2022-11-16T02:58:59.519Z,63.51
2022-11-16T03:01:38.667Z,63.17
2022-11-16T03:04:36.006Z,62.73
2022-11-16T03:07:10.911Z,63.16
2022-11-16T03:09:45.273Z,62.70
2022-11-16T03:12:22.294Z,62.84
2022-11-16T03:15:01.929Z,62.65
2022-11-16T03:17:46.292Z,62.63
2022-11-16T03:20:23.918Z,62.77
2022-11-16T03:23:05.976Z,62.69
2022-11-16T03:25:41.952Z,63.17
2022-11-16T03:28:40.722Z,62.91
2022-11-16T03:31:28.961Z,62.57
2022-11-16T03:34:06.453Z,62.65
2022-11-16T03:36:43.631Z,62.50
2022-11-16T03:39:23.914Z,62.26
2022-11-16T03:41:56.712Z,62.32
2022-11-16T03:44:29.911Z,62.45
2022-11-16T03:47:01.106Z,62.39
2022-11-16T03:49:35.326Z,62.18
2022-11-16T03:52:07.063Z,61.92
2022-11-16T03:54:38.241Z,62.09
2022-11-16T03:57:09.401Z,62.15
2022-11-16T03:59:40.766Z,62.16
2022-11-16T04:02:12.836Z,62.09
2022-11-16T04:05:02.055Z,62.09
2022-11-16T04:07:51.847Z,61.93
2022-11-16T04:10:41.313Z,61.96
2022-11-16T04:13:33.182Z,61.83
2022-11-16T04:16:22.802Z,61.73
2022-11-16T04:19:11.991Z,62.15
2022-11-16T04:22:12.477Z,61.75
2022-11-16T04:24:48.721Z,61.86
2022-11-16T04:27:42.293Z,61.81
2022-11-16T04:30:14.312Z,61.71
2022-11-16T04:33:04.062Z,62.15
2022-11-16T04:35:53.992Z,61.81
2022-11-16T04:38:25.584Z,62.14
2022-11-16T04:40:56.644Z,62.41
2022-11-16T04:43:28.630Z,61.96
2022-11-16T04:46:18.801Z,61.90
2022-11-16T04:48:49.908Z,61.46
2022-11-16T04:51:21.199Z,61.37
2022-11-16T04:53:52.802Z,61.22
2022-11-16T04:56:26.510Z,61.32
2022-11-16T04:58:57.633Z,60.97
2022-11-16T05:01:47.806Z,61.32
2022-11-16T05:04:19.730Z,61.45
2022-11-16T05:06:51.370Z,61.59
2022-11-16T05:09:23.414Z,61.17
2022-11-16T05:11:54.648Z,61.17
2022-11-16T05:14:26.049Z,61.04
2022-11-16T05:16:57.398Z,60.92
2022-11-16T05:19:46.900Z,60.75
2022-11-16T05:22:18.203Z,61.13
2022-11-16T05:24:49.956Z,60.70
2022-11-16T05:27:24.395Z,60.78
2022-11-16T05:29:56.577Z,60.54
2022-11-16T05:32:29.502Z,60.76
2022-11-16T05:35:03.422Z,60.84
2022-11-16T05:37:34.627Z,60.86
2022-11-16T05:40:06.587Z,60.57
2022-11-16T05:42:44.923Z,60.51
2022-11-16T05:45:20.717Z,60.38
2022-11-16T05:47:53.334Z,60.46
2022-11-16T05:50:24.925Z,60.33
2022-11-16T05:53:09.325Z,60.38
2022-11-16T05:55:40.640Z,60.29
2022-11-16T05:58:12.134Z,60.02
2022-11-16T06:00:43.436Z,60.09
2022-11-16T06:03:15.683Z,60.23
2022-11-16T06:05:47.609Z,59.94
2022-11-16T06:08:21.014Z,60.04
2022-11-16T06:10:56.294Z,59.90
2022-11-16T06:13:27.848Z,59.87
2022-11-16T06:16:02.859Z,59.72
2022-11-16T06:18:40.351Z,59.63
2022-11-16T06:21:14.384Z,59.71
2022-11-16T06:23:45.874Z,59.79
2022-11-16T06:26:17.154Z,59.54
2022-11-16T06:28:50.682Z,59.80
2022-11-16T06:31:22.595Z,59.54
2022-11-16T06:33:54.060Z,59.56
2022-11-16T06:36:30.376Z,59.51
2022-11-16T06:39:02.891Z,59.29
2022-11-16T06:41:41.377Z,59.24
2022-11-16T06:44:15.370Z,59.23
2022-11-16T06:46:56.592Z,59.19
2022-11-16T06:49:28.084Z,59.16
2022-11-16T06:52:03.216Z,59.12
2022-11-16T06:54:36.383Z,59.12
2022-11-16T06:57:07.826Z,59.07
2022-11-16T06:59:39.016Z,59.19
2022-11-16T07:02:12.566Z,58.94
2022-11-16T07:04:45.828Z,59.00
2022-11-16T07:07:19.862Z,58.44
2022-11-16T07:09:51.706Z,58.73
2022-11-16T07:12:23.437Z,59.02
2022-11-16T07:14:54.616Z,58.86
2022-11-16T07:17:27.514Z,58.72
2022-11-16T07:19:59.015Z,58.64
2022-11-16T07:22:30.026Z,59.01
2022-11-16T07:25:03.133Z,58.66
2022-11-16T07:27:34.284Z,58.58
2022-11-16T07:30:07.037Z,58.49
2022-11-16T07:32:48.311Z,58.50
2022-11-16T07:35:39.890Z,58.67
2022-11-16T07:38:15.417Z,58.59
2022-11-16T07:40:50.002Z,58.49
2022-11-16T07:43:24.912Z,58.46
2022-11-16T07:49:18.108Z,58.29
2022-11-16T07:52:01.776Z,58.58
2022-11-16T07:54:46.464Z,58.07
2022-11-16T07:57:19.029Z,58.28
2022-11-16T07:59:50.500Z,58.63
2022-11-16T08:02:21.897Z,58.13
2022-11-16T08:04:54.445Z,58.31
2022-11-16T08:07:29.637Z,58.02
2022-11-16T08:10:01.031Z,58.11
2022-11-16T08:12:32.883Z,58.10
2022-11-16T08:15:04.176Z,58.03
2022-11-16T08:17:35.350Z,57.98
2022-11-16T08:20:09.888Z,58.02
2022-11-16T08:22:41.113Z,57.88
2022-11-16T08:25:13.717Z,57.95
2022-11-16T08:27:49.101Z,57.97
2022-11-16T08:30:24.042Z,57.96
2022-11-16T08:32:56.414Z,57.65
2022-11-16T08:35:27.554Z,57.71
2022-11-16T08:37:59.195Z,57.78
2022-11-16T08:40:32.176Z,57.66
2022-11-16T08:43:03.384Z,57.80
2022-11-16T08:45:36.128Z,57.65
2022-11-16T08:48:08.393Z,57.46
2022-11-16T08:51:02.386Z,57.48
2022-11-16T08:53:31.979Z,57.54
2022-11-16T08:56:10.159Z,57.47
2022-11-16T08:58:50.305Z,57.17
2022-11-16T09:01:26.168Z,57.10
2022-11-16T09:03:58.195Z,57.53
2022-11-16T09:06:30.059Z,57.28
2022-11-16T09:09:00.554Z,57.93
2022-11-16T09:11:31.639Z,57.56
2022-11-16T09:14:02.741Z,57.38
2022-11-16T09:16:34.614Z,57.72
2022-11-16T09:19:05.732Z,57.23
2022-11-16T09:21:39.168Z,57.12
2022-11-16T09:24:11.084Z,57.32
2022-11-16T09:26:42.176Z,57.54
2022-11-16T09:29:17.459Z,57.40
2022-11-16T09:31:49.329Z,57.92
2022-11-16T09:34:20.576Z,57.54
2022-11-16T09:36:51.722Z,57.75
2022-11-16T09:39:31.431Z,57.36
2022-11-16T09:42:46.157Z,57.53
2022-11-16T09:45:29.681Z,57.42
2022-11-16T09:48:05.744Z,57.52
2022-11-16T09:50:52.682Z,57.53
2022-11-16T09:53:35.997Z,58.00
2022-11-16T09:56:13.702Z,58.92
2022-11-16T09:59:27.981Z,59.75
2022-11-16T10:01:59.048Z,60.10
2022-11-16T10:05:12.059Z,60.77
2022-11-16T10:07:48.223Z,60.03
2022-11-16T10:10:27.053Z,60.56
2022-11-16T10:12:58.092Z,60.49
2022-11-16T10:15:53.928Z,61.60
2022-11-16T10:18:47.751Z,62.05
2022-11-16T10:21:41.352Z,62.44
2022-11-16T10:24:39.667Z,63.08
2022-11-16T10:27:10.902Z,64.01
2022-11-16T10:29:52.105Z,64.34
2022-11-16T10:32:32.898Z,64.45
2022-11-16T10:35:07.448Z,64.98
2022-11-16T10:37:45.851Z,64.78
2022-11-16T10:40:40.431Z,65.27
2022-11-16T10:43:14.276Z,65.73
2022-11-16T10:46:07.378Z,66.17
2022-11-16T10:48:45.827Z,66.57
2022-11-16T10:51:17.740Z,66.74
2022-11-16T10:53:48.898Z,67.03
2022-11-16T10:56:26.037Z,67.55
2022-11-16T10:59:01.290Z,67.83
2022-11-16T11:01:46.383Z,67.96
2022-11-16T11:04:24.001Z,68.07
2022-11-16T11:07:04.138Z,68.46
2022-11-16T11:09:43.139Z,68.48
2022-11-16T11:12:37.188Z,68.94
2022-11-16T11:15:14.975Z,68.82
2022-11-16T11:17:50.670Z,69.05
2022-11-16T11:20:26.494Z,68.77
2022-11-16T11:23:00.385Z,69.00
2022-11-16T11:25:38.883Z,68.83
2022-11-16T11:28:25.021Z,69.08
2022-11-16T11:31:23.924Z,69.16
2022-11-16T11:34:25.523Z,69.02
2022-11-16T11:37:05.684Z,69.36
2022-11-16T11:39:39.022Z,69.25
2022-11-16T11:42:16.299Z,69.14
2022-11-16T11:44:58.766Z,69.26
2022-11-16T11:47:57.996Z,69.73
2022-11-16T11:50:39.296Z,69.69
2022-11-16T11:53:32.118Z,69.80
2022-11-16T11:56:03.890Z,70.02
2022-11-16T11:58:40.031Z,70.35
2022-11-16T12:01:29.013Z,70.55
2022-11-16T12:04:33.846Z,70.88
2022-11-16T12:07:36.318Z,71.21
2022-11-16T12:10:26.045Z,71.40
2022-11-16T12:13:03.216Z,71.56
2022-11-16T12:15:58.078Z,71.50
2022-11-16T12:18:36.370Z,71.94
2022-11-16T12:21:21.023Z,71.70
2022-11-16T12:23:58.059Z,71.80
2022-11-16T12:26:51.304Z,71.74
2022-11-16T12:29:43.031Z,71.51
2022-11-16T12:32:26.922Z,72.14
2022-11-16T12:35:20.679Z,72.57
2022-11-16T12:38:21.750Z,72.67
2022-11-16T12:41:14.324Z,72.46
2022-11-16T12:43:55.544Z,72.42
2022-11-16T12:46:26.556Z,72.42
2022-11-16T12:49:26.842Z,72.24
2022-11-16T12:52:21.922Z,72.24
2022-11-16T12:55:27.525Z,72.19
2022-11-16T12:58:17.308Z,71.87
2022-11-16T13:01:22.037Z,71.47
2022-11-16T13:04:00.450Z,71.34
2022-11-16T13:07:24.076Z,71.29
2022-11-16T13:10:18.360Z,71.20
2022-11-16T13:13:09.017Z,71.63
2022-11-16T13:15:49.333Z,71.92
2022-11-16T13:18:23.095Z,71.81
2022-11-16T13:21:33.450Z,72.05
2022-11-16T13:24:23.025Z,72.63
2022-11-16T13:27:25.710Z,72.76
2022-11-16T13:30:06.773Z,71.46
2022-11-16T13:33:18.997Z,73.61
2022-11-16T13:35:51.272Z,71.76
2022-11-16T13:38:55.265Z,70.04
2022-11-16T13:41:36.349Z,68.54
2022-11-16T13:44:15.542Z,67.20
2022-11-16T13:46:55.815Z,66.11
2022-11-16T13:49:53.208Z,65.93
2022-11-16T13:52:31.774Z,65.49
2022-11-16T13:55:30.443Z,64.86
2022-11-16T13:58:04.418Z,64.29
2022-11-16T14:00:41.261Z,62.96
2022-11-16T14:03:19.970Z,63.75
2022-11-16T14:05:53.556Z,62.63
2022-11-16T14:08:27.748Z,62.32
2022-11-16T14:10:58.942Z,61.94
2022-11-16T14:13:50.034Z,61.27
2022-11-16T14:16:21.722Z,61.37
2022-11-16T14:18:55.754Z,60.83
2022-11-16T14:21:53.148Z,60.85
2022-11-16T14:24:48.744Z,60.18
2022-11-16T14:27:30.589Z,59.41
2022-11-16T14:30:16.280Z,60.19
2022-11-16T14:32:51.640Z,58.82
2022-11-16T14:35:38.327Z,58.36
2022-11-16T14:38:44.746Z,58.11
2022-11-16T14:41:23.618Z,57.81
2022-11-16T14:43:59.879Z,57.48
2022-11-16T14:46:36.556Z,57.23
2022-11-16T14:49:17.488Z,57.09
2022-11-16T14:51:53.417Z,56.91
2022-11-16T14:54:43.717Z,56.34
2022-11-16T14:57:40.941Z,55.84
2022-11-16T15:00:23.986Z,56.00
2022-11-16T15:03:02.090Z,55.32
2022-11-16T15:05:38.683Z,55.38
2022-11-16T15:08:24.468Z,54.75
2022-11-16T15:10:55.626Z,54.76
2022-11-16T15:13:27.770Z,55.18
2022-11-16T15:16:18.821Z,54.49
2022-11-16T15:19:00.699Z,54.25
2022-11-16T15:21:32.029Z,54.08
2022-11-16T15:24:31.781Z,54.10
2022-11-16T15:26:55.185Z,54.04
2022-11-16T15:29:27.225Z,53.25
2022-11-16T15:31:59.142Z,53.18
2022-11-16T15:34:30.401Z,52.78
2022-11-16T15:37:01.502Z,53.43
2022-11-16T15:39:37.645Z,53.64
2022-11-16T15:42:11.878Z,53.65
2022-11-16T15:44:44.395Z,53.24
2022-11-16T15:47:16.651Z,53.36
2022-11-16T15:49:54.332Z,52.56
2022-11-16T15:52:45.741Z,52.66
2022-11-16T15:55:49.380Z,52.00
2022-11-16T15:58:28.483Z,51.92
2022-11-16T16:01:01.517Z,51.88
2022-11-16T16:03:36.113Z,52.10
2022-11-16T16:06:10.004Z,52.06
2022-11-16T16:08:43.237Z,52.17
2022-11-16T16:11:29.876Z,51.79
2022-11-16T16:14:03.539Z,51.71
2022-11-16T16:16:38.763Z,51.71
2022-11-16T16:19:35.210Z,51.74
2022-11-16T16:22:08.404Z,50.91
2022-11-16T16:24:48.254Z,50.77
2022-11-16T16:27:22.136Z,50.49
2022-11-16T16:29:56.497Z,50.53
2022-11-16T16:32:38.422Z,50.94
2022-11-16T16:35:18.048Z,51.07
2022-11-16T16:38:00.108Z,50.19
2022-11-16T16:40:31.934Z,50.08
2022-11-16T16:43:03.114Z,50.24
2022-11-16T16:45:43.405Z,50.13
2022-11-16T16:48:15.565Z,49.69
2022-11-16T16:50:47.831Z,49.69
2022-11-16T16:53:20.433Z,49.76
2022-11-16T16:55:52.606Z,49.50
2022-11-16T16:58:24.212Z,49.27
2022-11-16T17:01:01.105Z,49.55
2022-11-16T17:03:40.027Z,49.66
2022-11-16T17:06:11.514Z,49.65
2022-11-16T17:08:44.208Z,49.62
2022-11-16T17:11:17.464Z,48.75
2022-11-16T17:13:49.522Z,49.58
2022-11-16T17:16:24.634Z,48.98
2022-11-16T17:18:58.595Z,48.63
2022-11-16T17:21:30.941Z,48.81
2022-11-16T17:24:03.523Z,49.12
2022-11-16T17:26:35.927Z,48.60
2022-11-16T17:29:13.565Z,48.48
2022-11-16T17:31:52.000Z,49.12
2022-11-16T17:34:24.191Z,48.41
2022-11-16T17:36:57.322Z,48.54
2022-11-16T17:39:29.257Z,48.34
2022-11-16T17:42:04.611Z,48.37
2022-11-16T17:44:36.892Z,48.12
2022-11-16T17:47:09.566Z,48.09
2022-11-16T17:49:42.009Z,48.33
2022-11-16T17:52:22.682Z,48.26
2022-11-16T17:54:55.011Z,48.08
2022-11-16T17:57:30.250Z,47.92
2022-11-16T18:00:05.681Z,47.60
2022-11-16T18:02:37.582Z,47.63
2022-11-16T18:05:09.803Z,47.51
2022-11-16T18:07:42.610Z,47.79
2022-11-16T18:10:17.944Z,47.64
2022-11-16T18:12:52.173Z,47.64
2022-11-16T18:15:28.529Z,47.25
2022-11-16T18:18:00.154Z,47.59
2022-11-16T18:20:31.908Z,46.97
2022-11-16T18:23:03.095Z,47.12
2022-11-16T18:25:38.592Z,47.02
2022-11-16T18:28:10.248Z,47.08
2022-11-16T18:30:41.262Z,46.67
2022-11-16T18:33:12.773Z,47.42
2022-11-16T18:35:44.392Z,47.14
2022-11-16T18:38:16.172Z,47.28
2022-11-16T18:40:47.189Z,46.67
2022-11-16T18:43:18.481Z,47.09
2022-11-16T18:45:50.162Z,46.76
2022-11-16T18:48:22.100Z,47.04
2022-11-16T18:50:53.139Z,46.99
2022-11-16T18:53:24.913Z,46.73
2022-11-16T18:55:58.060Z,47.02
2022-11-16T18:58:49.750Z,46.87
2022-11-16T19:01:23.733Z,46.55
2022-11-16T19:03:56.285Z,46.47
2022-11-16T19:06:27.488Z,46.73
2022-11-16T19:09:00.963Z,46.31
2022-11-16T19:11:32.460Z,46.29
2022-11-16T19:14:08.768Z,46.66
2022-11-16T19:16:47.262Z,46.61
2022-11-16T19:19:21.785Z,47.15
2022-11-16T19:21:53.514Z,47.04
2022-11-16T19:24:25.396Z,46.60
2022-11-16T19:26:56.653Z,46.86
2022-11-16T19:29:28.172Z,46.85
2022-11-16T19:31:59.336Z,46.28
2022-11-16T19:34:33.282Z,46.14
2022-11-16T19:37:04.813Z,46.82
2022-11-16T19:39:35.876Z,46.41
2022-11-16T19:42:07.389Z,46.41
2022-11-16T19:44:38.736Z,46.55
2022-11-16T19:47:09.779Z,46.24
2022-11-16T19:49:40.828Z,46.24
2022-11-16T19:52:11.859Z,46.08
2022-11-16T19:54:43.274Z,46.66
2022-11-16T19:57:15.031Z,46.53
2022-11-16T19:59:46.238Z,46.06
2022-11-16T20:02:17.323Z,45.87
2022-11-16T20:04:48.862Z,46.41
2022-11-16T20:07:19.903Z,45.93
2022-11-16T20:09:53.484Z,45.68
2022-11-16T20:12:25.049Z,45.40
2022-11-16T20:14:56.676Z,45.36
2022-11-16T20:17:27.731Z,45.42
2022-11-16T20:19:58.902Z,45.55
2022-11-16T20:22:30.276Z,45.25
2022-11-16T20:25:01.337Z,45.13
2022-11-16T20:27:32.828Z,45.44
2022-11-16T20:30:09.335Z,45.17
2022-11-16T20:32:40.896Z,44.74
2022-11-16T20:35:17.762Z,44.75
2022-11-16T20:37:50.271Z,44.67
2022-11-16T20:40:21.615Z,44.56
2022-11-16T20:42:53.509Z,44.86
2022-11-16T20:45:24.606Z,44.79
2022-11-16T20:47:55.755Z,44.47
2022-11-16T20:50:26.844Z,44.82
2022-11-16T20:52:58.891Z,44.17
2022-11-16T20:55:30.371Z,44.31
2022-11-16T20:58:01.454Z,44.35
2022-11-16T21:00:32.518Z,43.98
2022-11-16T21:03:03.720Z,44.26
2022-11-16T21:05:35.441Z,44.44
2022-11-16T21:08:06.639Z,44.69
2022-11-16T21:10:39.467Z,44.36
2022-11-16T21:13:35.193Z,44.62
2022-11-16T21:16:16.457Z,44.74
2022-11-16T21:18:47.528Z,44.31
2022-11-16T21:21:18.737Z,44.58
2022-11-16T21:23:53.716Z,44.34
2022-11-16T21:26:27.435Z,44.10
2022-11-16T21:28:59.445Z,44.25
2022-11-16T21:31:35.583Z,44.28
2022-11-16T21:34:08.655Z,44.57
2022-11-16T21:36:39.827Z,44.25
2022-11-16T21:39:11.181Z,44.50
2022-11-16T21:41:42.256Z,45.19
2022-11-16T21:44:13.331Z,44.93
2022-11-16T21:46:44.380Z,44.65
2022-11-16T21:49:15.546Z,45.03
2022-11-16T21:51:46.587Z,44.63
2022-11-16T21:54:17.599Z,44.27
2022-11-16T21:56:49.077Z,44.69
2022-11-16T21:59:20.450Z,44.34
2022-11-16T22:02:00.821Z,44.18
2022-11-16T22:04:50.063Z,44.15
2022-11-16T22:07:39.317Z,44.01
2022-11-16T22:10:14.763Z,44.08
2022-11-16T22:12:46.441Z,43.87
2022-11-16T22:15:17.716Z,43.93
2022-11-16T22:17:49.026Z,44.16
2022-11-16T22:20:20.572Z,44.21
2022-11-16T22:22:52.342Z,44.19
2022-11-16T22:25:23.787Z,43.74
2022-11-16T22:30:51.433Z,43.56
2022-11-16T22:33:23.228Z,43.46
2022-11-16T22:35:54.506Z,43.51
2022-11-16T22:38:26.178Z,43.76
2022-11-16T22:40:58.916Z,43.60
2022-11-16T22:43:32.819Z,43.61
2022-11-16T22:46:06.959Z,43.15
2022-11-16T22:48:40.907Z,43.72
2022-11-16T22:51:21.814Z,43.08
2022-11-16T22:54:04.337Z,43.24
2022-11-16T22:56:35.788Z,43.43
2022-11-16T22:59:07.281Z,43.26
2022-11-16T23:01:39.325Z,42.96
2022-11-16T23:04:11.303Z,44.01
2022-11-16T23:06:42.629Z,44.43
2022-11-16T23:09:13.803Z,44.93
2022-11-16T23:12:02.936Z,45.95
2022-11-16T23:14:52.014Z,46.19
2022-11-16T23:17:23.217Z,47.05
2022-11-16T23:20:17.449Z,47.53
2022-11-16T23:23:07.394Z,48.56
2022-11-16T23:25:57.772Z,52.36
2022-11-16T23:28:28.933Z,58.06
2022-11-16T23:31:00.120Z,60.72
2022-11-16T23:33:46.286Z,61.89
2022-11-16T23:36:17.531Z,64.18
2022-11-16T23:38:48.714Z,64.34
2022-11-16T23:41:37.760Z,65.26
2022-11-16T23:44:08.865Z,67.23
2022-11-16T23:46:40.118Z,68.19
2022-11-16T23:49:11.271Z,68.55
2022-11-16T23:51:42.419Z,69.46
2022-11-16T23:54:13.582Z,67.95
2022-11-16T23:56:44.856Z,70.17
2022-11-16T23:59:16.588Z,70.33
